sensor_id;sensor_type;location;lat;lon;timestamp;temperature;humidity
52036;DHT22;38046;49.448;32.074;2023-06-22T00:00:27;21.90;86.40
52036;DHT22;38046;49.448;32.074;2023-06-22T00:02:53;21.90;86.60
52036;DHT22;38046;49.448;32.074;2023-06-22T00:05:18;21.90;86.50
52036;DHT22;38046;49.448;32.074;2023-06-22T00:07:44;21.80;86.70
52036;DHT22;38046;49.448;32.074;2023-06-22T00:10:10;21.80;87.00
52036;DHT22;38046;49.448;32.074;2023-06-22T00:12:35;21.80;87.30
52036;DHT22;38046;49.448;32.074;2023-06-22T00:15:01;21.80;87.60
52036;DHT22;38046;49.448;32.074;2023-06-22T00:17:27;21.80;87.90
52036;DHT22;38046;49.448;32.074;2023-06-22T00:19:52;21.80;88.10
52036;DHT22;38046;49.448;32.074;2023-06-22T00:22:21;21.70;88.30
52036;DHT22;38046;49.448;32.074;2023-06-22T00:24:56;21.70;88.60
52036;DHT22;38046;49.448;32.074;2023-06-22T00:27:22;21.80;89.30
52036;DHT22;38046;49.448;32.074;2023-06-22T00:29:47;21.70;90.00
52036;DHT22;38046;49.448;32.074;2023-06-22T00:32:13;21.80;90.10
52036;DHT22;38046;49.448;32.074;2023-06-22T00:34:39;21.80;90.20
52036;DHT22;38046;49.448;32.074;2023-06-22T00:37:04;21.70;90.30
52036;DHT22;38046;49.448;32.074;2023-06-22T00:39:30;21.80;90.50
52036;DHT22;38046;49.448;32.074;2023-06-22T00:41:59;21.80;90.50
52036;DHT22;38046;49.448;32.074;2023-06-22T00:44:24;21.80;90.50
52036;DHT22;38046;49.448;32.074;2023-06-22T00:46:54;21.80;90.50
52036;DHT22;38046;49.448;32.074;2023-06-22T00:49:19;21.80;90.50
52036;DHT22;38046;49.448;32.074;2023-06-22T00:51:45;21.80;90.50
52036;DHT22;38046;49.448;32.074;2023-06-22T00:54:13;21.80;90.40
52036;DHT22;38046;49.448;32.074;2023-06-22T00:56:40;21.80;90.30
52036;DHT22;38046;49.448;32.074;2023-06-22T00:59:06;21.80;90.30
52036;DHT22;38046;49.448;32.074;2023-06-22T01:01:32;21.80;90.20
52036;DHT22;38046;49.448;32.074;2023-06-22T01:03:59;21.80;90.20
52036;DHT22;38046;49.448;32.074;2023-06-22T01:06:35;21.80;90.10
52036;DHT22;38046;49.448;32.074;2023-06-22T01:09:15;21.80;89.80
52036;DHT22;38046;49.448;32.074;2023-06-22T01:11:54;21.80;89.70
52036;DHT22;38046;49.448;32.074;2023-06-22T01:14:37;21.80;89.40
52036;DHT22;38046;49.448;32.074;2023-06-22T01:17:04;21.80;89.40
52036;DHT22;38046;49.448;32.074;2023-06-22T01:19:45;21.70;89.60
52036;DHT22;38046;49.448;32.074;2023-06-22T01:22:18;21.70;89.10
52036;DHT22;38046;49.448;32.074;2023-06-22T01:29:58;21.60;89.30
52036;DHT22;38046;49.448;32.074;2023-06-22T01:32:31;21.60;89.00
52036;DHT22;38046;49.448;32.074;2023-06-22T01:35:02;21.60;88.60
52036;DHT22;38046;49.448;32.074;2023-06-22T01:37:29;21.60;88.60
52036;DHT22;38046;49.448;32.074;2023-06-22T01:39:57;21.60;88.60
52036;DHT22;38046;49.448;32.074;2023-06-22T01:42:24;21.60;88.80
52036;DHT22;38046;49.448;32.074;2023-06-22T01:44:52;21.50;88.70
52036;DHT22;38046;49.448;32.074;2023-06-22T01:47:22;21.50;88.60
52036;DHT22;38046;49.448;32.074;2023-06-22T01:49:48;21.50;88.70
52036;DHT22;38046;49.448;32.074;2023-06-22T01:52:15;21.50;88.80
52036;DHT22;38046;49.448;32.074;2023-06-22T01:54:41;21.50;88.80
52036;DHT22;38046;49.448;32.074;2023-06-22T01:57:07;21.40;88.80
52036;DHT22;38046;49.448;32.074;2023-06-22T02:02:06;21.40;89.00
52036;DHT22;38046;49.448;32.074;2023-06-22T02:04:42;21.40;89.20
52036;DHT22;38046;49.448;32.074;2023-06-22T02:07:13;21.40;89.10
52036;DHT22;38046;49.448;32.074;2023-06-22T02:09:41;21.40;89.20
52036;DHT22;38046;49.448;32.074;2023-06-22T02:12:08;21.40;89.30
52036;DHT22;38046;49.448;32.074;2023-06-22T02:14:36;21.40;89.40
52036;DHT22;38046;49.448;32.074;2023-06-22T02:17:02;21.40;89.40
52036;DHT22;38046;49.448;32.074;2023-06-22T02:19:30;21.40;89.60
52036;DHT22;38046;49.448;32.074;2023-06-22T02:21:58;21.40;89.80
52036;DHT22;38046;49.448;32.074;2023-06-22T02:24:24;21.40;90.00
52036;DHT22;38046;49.448;32.074;2023-06-22T02:26:49;21.40;90.00
52036;DHT22;38046;49.448;32.074;2023-06-22T02:29:15;21.50;90.00
52036;DHT22;38046;49.448;32.074;2023-06-22T02:31:41;21.60;90.00
52036;DHT22;38046;49.448;32.074;2023-06-22T02:34:06;21.60;90.00
52036;DHT22;38046;49.448;32.074;2023-06-22T02:36:32;21.60;90.10
52036;DHT22;38046;49.448;32.074;2023-06-22T02:38:58;21.70;90.00
52036;DHT22;38046;49.448;32.074;2023-06-22T02:41:27;21.70;90.00
52036;DHT22;38046;49.448;32.074;2023-06-22T02:43:52;21.80;89.80
52036;DHT22;38046;49.448;32.074;2023-06-22T02:46:18;21.80;90.00
52036;DHT22;38046;49.448;32.074;2023-06-22T02:48:44;21.90;89.80
52036;DHT22;38046;49.448;32.074;2023-06-22T02:51:09;21.90;89.90
52036;DHT22;38046;49.448;32.074;2023-06-22T02:53:35;22.00;89.50
52036;DHT22;38046;49.448;32.074;2023-06-22T02:56:03;22.00;89.40
52036;DHT22;38046;49.448;32.074;2023-06-22T02:58:31;22.10;89.10
52036;DHT22;38046;49.448;32.074;2023-06-22T03:01:04;22.10;89.40
52036;DHT22;38046;49.448;32.074;2023-06-22T03:03:30;22.20;89.40
52036;DHT22;38046;49.448;32.074;2023-06-22T03:05:56;22.30;89.50
52036;DHT22;38046;49.448;32.074;2023-06-22T03:08:22;22.30;89.50
52036;DHT22;38046;49.448;32.074;2023-06-22T03:10:47;22.40;89.20
52036;DHT22;38046;49.448;32.074;2023-06-22T03:13:13;22.50;89.70
52036;DHT22;38046;49.448;32.074;2023-06-22T03:15:38;22.60;89.00
52036;DHT22;38046;49.448;32.074;2023-06-22T03:18:04;22.60;88.70
52036;DHT22;38046;49.448;32.074;2023-06-22T03:20:30;22.70;88.10
52036;DHT22;38046;49.448;32.074;2023-06-22T03:22:59;22.70;87.70
52036;DHT22;38046;49.448;32.074;2023-06-22T03:25:24;22.80;87.20
52036;DHT22;38046;49.448;32.074;2023-06-22T03:27:50;22.90;87.10
52036;DHT22;38046;49.448;32.074;2023-06-22T03:30:16;23.00;86.60
52036;DHT22;38046;49.448;32.074;2023-06-22T03:32:41;23.10;86.60
52036;DHT22;38046;49.448;32.074;2023-06-22T03:35:08;23.20;87.30
52036;DHT22;38046;49.448;32.074;2023-06-22T03:37:34;23.50;87.10
52036;DHT22;38046;49.448;32.074;2023-06-22T03:40:00;23.90;86.70
52036;DHT22;38046;49.448;32.074;2023-06-22T03:42:26;24.30;85.20
52036;DHT22;38046;49.448;32.074;2023-06-22T03:44:51;25.00;83.70
52036;DHT22;38046;49.448;32.074;2023-06-22T03:47:17;25.60;81.30
52036;DHT22;38046;49.448;32.074;2023-06-22T03:49:43;26.20;79.30
52036;DHT22;38046;49.448;32.074;2023-06-22T03:52:08;27.10;77.30
52036;DHT22;38046;49.448;32.074;2023-06-22T03:54:36;27.90;74.60
52036;DHT22;38046;49.448;32.074;2023-06-22T03:57:02;28.70;72.30
52036;DHT22;38046;49.448;32.074;2023-06-22T03:59:27;29.40;69.90
52036;DHT22;38046;49.448;32.074;2023-06-22T04:01:53;30.20;67.80
52036;DHT22;38046;49.448;32.074;2023-06-22T04:04:19;30.90;66.00
52036;DHT22;38046;49.448;32.074;2023-06-22T04:06:44;31.60;64.30
52036;DHT22;38046;49.448;32.074;2023-06-22T04:09:10;32.30;62.50
52036;DHT22;38046;49.448;32.074;2023-06-22T04:11:36;32.90;60.80
52036;DHT22;38046;49.448;32.074;2023-06-22T04:14:01;33.50;59.60
52036;DHT22;38046;49.448;32.074;2023-06-22T04:16:27;34.10;58.40
52036;DHT22;38046;49.448;32.074;2023-06-22T04:18:53;34.60;57.10
52036;DHT22;38046;49.448;32.074;2023-06-22T04:21:18;35.10;55.90
52036;DHT22;38046;49.448;32.074;2023-06-22T04:23:47;35.60;54.90
52036;DHT22;38046;49.448;32.074;2023-06-22T04:26:13;36.00;54.10
52036;DHT22;38046;49.448;32.074;2023-06-22T04:28:42;36.40;53.30
52036;DHT22;38046;49.448;32.074;2023-06-22T04:31:07;36.80;52.60
52036;DHT22;38046;49.448;32.074;2023-06-22T04:33:33;37.10;51.90
52036;DHT22;38046;49.448;32.074;2023-06-22T04:35:59;37.40;51.30
52036;DHT22;38046;49.448;32.074;2023-06-22T04:38:27;37.80;50.60
52036;DHT22;38046;49.448;32.074;2023-06-22T04:40:53;38.10;50.20
52036;DHT22;38046;49.448;32.074;2023-06-22T04:43:19;38.40;49.90
52036;DHT22;38046;49.448;32.074;2023-06-22T04:45:45;38.80;49.00
52036;DHT22;38046;49.448;32.074;2023-06-22T04:48:11;39.00;48.40
52036;DHT22;38046;49.448;32.074;2023-06-22T04:50:41;39.20;47.70
52036;DHT22;38046;49.448;32.074;2023-06-22T04:53:07;39.30;47.30
52036;DHT22;38046;49.448;32.074;2023-06-22T04:55:35;39.20;46.90
52036;DHT22;38046;49.448;32.074;2023-06-22T04:58:03;39.10;46.60
52036;DHT22;38046;49.448;32.074;2023-06-22T05:00:30;39.00;46.60
52036;DHT22;38046;49.448;32.074;2023-06-22T05:02:56;38.90;46.50
52036;DHT22;38046;49.448;32.074;2023-06-22T05:05:23;38.90;46.50
52036;DHT22;38046;49.448;32.074;2023-06-22T05:07:51;39.00;46.30
52036;DHT22;38046;49.448;32.074;2023-06-22T05:10:18;39.00;46.10
52036;DHT22;38046;49.448;32.074;2023-06-22T05:12:44;39.00;46.10
52036;DHT22;38046;49.448;32.074;2023-06-22T05:15:10;39.00;45.80
52036;DHT22;38046;49.448;32.074;2023-06-22T05:17:36;39.10;45.60
52036;DHT22;38046;49.448;32.074;2023-06-22T05:20:11;39.10;45.20
52036;DHT22;38046;49.448;32.074;2023-06-22T05:22:40;39.00;44.60
52036;DHT22;38046;49.448;32.074;2023-06-22T05:25:08;38.80;44.60
52036;DHT22;38046;49.448;32.074;2023-06-22T05:27:34;38.20;44.60
52036;DHT22;38046;49.448;32.074;2023-06-22T05:30:05;37.40;45.20
52036;DHT22;38046;49.448;32.074;2023-06-22T05:32:32;36.50;46.40
52036;DHT22;38046;49.448;32.074;2023-06-22T05:34:59;35.70;47.20
52036;DHT22;38046;49.448;32.074;2023-06-22T05:37:24;34.90;48.30
52036;DHT22;38046;49.448;32.074;2023-06-22T05:39:50;34.10;49.70
52036;DHT22;38046;49.448;32.074;2023-06-22T05:42:16;33.50;51.40
52036;DHT22;38046;49.448;32.074;2023-06-22T05:44:41;32.90;52.70
52036;DHT22;38046;49.448;32.074;2023-06-22T05:47:07;32.40;54.00
52036;DHT22;38046;49.448;32.074;2023-06-22T05:49:33;31.90;55.20
52036;DHT22;38046;49.448;32.074;2023-06-22T05:51:59;31.60;56.20
52036;DHT22;38046;49.448;32.074;2023-06-22T05:54:26;31.30;57.10
52036;DHT22;38046;49.448;32.074;2023-06-22T05:56:52;31.00;58.00
52036;DHT22;38046;49.448;32.074;2023-06-22T05:59:18;30.80;58.50
52036;DHT22;38046;49.448;32.074;2023-06-22T06:01:43;30.60;58.80
52036;DHT22;38046;49.448;32.074;2023-06-22T06:04:09;30.40;59.30
52036;DHT22;38046;49.448;32.074;2023-06-22T06:06:35;30.20;59.80
52036;DHT22;38046;49.448;32.074;2023-06-22T06:09:03;30.10;60.20
52036;DHT22;38046;49.448;32.074;2023-06-22T06:11:29;30.00;60.90
52036;DHT22;38046;49.448;32.074;2023-06-22T06:13:55;29.80;61.50
52036;DHT22;38046;49.448;32.074;2023-06-22T06:16:21;29.70;62.10
52036;DHT22;38046;49.448;32.074;2023-06-22T06:18:47;29.50;62.60
52036;DHT22;38046;49.448;32.074;2023-06-22T06:21:15;29.40;63.20
52036;DHT22;38046;49.448;32.074;2023-06-22T06:23:40;29.30;63.50
52036;DHT22;38046;49.448;32.074;2023-06-22T06:26:06;29.10;63.90
52036;DHT22;38046;49.448;32.074;2023-06-22T06:28:32;29.00;64.60
52036;DHT22;38046;49.448;32.074;2023-06-22T06:30:58;28.90;65.00
52036;DHT22;38046;49.448;32.074;2023-06-22T06:33:24;28.80;65.40
52036;DHT22;38046;49.448;32.074;2023-06-22T06:35:50;28.70;65.70
52036;DHT22;38046;49.448;32.074;2023-06-22T06:38:15;28.70;66.00
52036;DHT22;38046;49.448;32.074;2023-06-22T06:40:41;28.60;66.30
52036;DHT22;38046;49.448;32.074;2023-06-22T06:43:07;28.50;66.60
52036;DHT22;38046;49.448;32.074;2023-06-22T06:45:32;28.40;67.00
52036;DHT22;38046;49.448;32.074;2023-06-22T06:48:00;28.40;67.20
52036;DHT22;38046;49.448;32.074;2023-06-22T06:50:25;28.30;67.20
52036;DHT22;38046;49.448;32.074;2023-06-22T07:05:41;28.20;66.80
52036;DHT22;38046;49.448;32.074;2023-06-22T07:08:07;28.50;68.80
52036;DHT22;38046;49.448;32.074;2023-06-22T07:10:33;28.40;69.00
52036;DHT22;38046;49.448;32.074;2023-06-22T07:12:58;28.30;69.30
52036;DHT22;38046;49.448;32.074;2023-06-22T07:15:24;28.20;69.60
52036;DHT22;38046;49.448;32.074;2023-06-22T07:17:50;28.10;69.80
52036;DHT22;38046;49.448;32.074;2023-06-22T07:20:16;28.10;69.80
52036;DHT22;38046;49.448;32.074;2023-06-22T07:22:44;28.00;69.80
52036;DHT22;38046;49.448;32.074;2023-06-22T07:25:10;27.90;70.50
52036;DHT22;38046;49.448;32.074;2023-06-22T07:27:39;27.80;70.60
52036;DHT22;38046;49.448;32.074;2023-06-22T07:30:09;27.70;70.90
52036;DHT22;38046;49.448;32.074;2023-06-22T07:32:35;27.70;70.90
52036;DHT22;38046;49.448;32.074;2023-06-22T07:35:01;27.60;71.50
52036;DHT22;38046;49.448;32.074;2023-06-22T07:37:28;27.60;71.40
52036;DHT22;38046;49.448;32.074;2023-06-22T07:39:55;27.50;71.60
52036;DHT22;38046;49.448;32.074;2023-06-22T07:42:24;27.50;71.50
52036;DHT22;38046;49.448;32.074;2023-06-22T07:44:50;27.40;71.70
52036;DHT22;38046;49.448;32.074;2023-06-22T07:47:16;27.30;71.80
52036;DHT22;38046;49.448;32.074;2023-06-22T07:49:45;27.20;72.00
52036;DHT22;38046;49.448;32.074;2023-06-22T07:52:10;27.10;72.10
52036;DHT22;38046;49.448;32.074;2023-06-22T07:54:36;27.10;72.30
52036;DHT22;38046;49.448;32.074;2023-06-22T07:57:02;27.10;72.60
52036;DHT22;38046;49.448;32.074;2023-06-22T07:59:28;27.00;73.30
52036;DHT22;38046;49.448;32.074;2023-06-22T08:01:55;27.00;72.90
52036;DHT22;38046;49.448;32.074;2023-06-22T08:04:21;27.00;72.80
52036;DHT22;38046;49.448;32.074;2023-06-22T08:06:46;26.90;72.60
52036;DHT22;38046;49.448;32.074;2023-06-22T08:09:12;26.80;72.80
52036;DHT22;38046;49.448;32.074;2023-06-22T08:11:37;26.80;73.20
52036;DHT22;38046;49.448;32.074;2023-06-22T08:14:03;26.80;73.50
52036;DHT22;38046;49.448;32.074;2023-06-22T08:16:29;26.70;73.60
52036;DHT22;38046;49.448;32.074;2023-06-22T08:18:54;26.70;73.40
52036;DHT22;38046;49.448;32.074;2023-06-22T08:21:20;26.70;73.40
52036;DHT22;38046;49.448;32.074;2023-06-22T08:23:47;26.70;73.60
52036;DHT22;38046;49.448;32.074;2023-06-22T08:26:14;26.70;73.60
52036;DHT22;38046;49.448;32.074;2023-06-22T08:28:40;26.60;73.30
52036;DHT22;38046;49.448;32.074;2023-06-22T08:31:05;26.60;73.20
52036;DHT22;38046;49.448;32.074;2023-06-22T08:33:31;26.60;73.20
52036;DHT22;38046;49.448;32.074;2023-06-22T08:35:58;26.50;73.50
52036;DHT22;38046;49.448;32.074;2023-06-22T08:38:24;26.50;73.40
52036;DHT22;38046;49.448;32.074;2023-06-22T08:40:50;26.40;73.30
52036;DHT22;38046;49.448;32.074;2023-06-22T08:43:15;26.40;73.80
52036;DHT22;38046;49.448;32.074;2023-06-22T08:45:41;26.30;74.00
52036;DHT22;38046;49.448;32.074;2023-06-22T08:48:06;26.30;74.00
52036;DHT22;38046;49.448;32.074;2023-06-22T08:50:32;26.30;74.00
52036;DHT22;38046;49.448;32.074;2023-06-22T08:52:58;26.20;74.30
52036;DHT22;38046;49.448;32.074;2023-06-22T08:55:23;26.20;74.40
52036;DHT22;38046;49.448;32.074;2023-06-22T08:57:49;26.20;74.40
52036;DHT22;38046;49.448;32.074;2023-06-22T09:00:15;26.20;74.30
52036;DHT22;38046;49.448;32.074;2023-06-22T09:02:46;26.20;74.60
52036;DHT22;38046;49.448;32.074;2023-06-22T09:05:12;26.10;74.60
52036;DHT22;38046;49.448;32.074;2023-06-22T09:07:38;26.10;74.60
52036;DHT22;38046;49.448;32.074;2023-06-22T09:10:04;26.10;74.20
52036;DHT22;38046;49.448;32.074;2023-06-22T09:12:31;26.10;74.50
52036;DHT22;38046;49.448;32.074;2023-06-22T09:14:58;26.10;75.00
52036;DHT22;38046;49.448;32.074;2023-06-22T09:17:25;26.00;75.20
52036;DHT22;38046;49.448;32.074;2023-06-22T09:19:51;26.00;75.40
52036;DHT22;38046;49.448;32.074;2023-06-22T09:22:17;26.00;75.60
52036;DHT22;38046;49.448;32.074;2023-06-22T09:24:43;26.00;75.20
52036;DHT22;38046;49.448;32.074;2023-06-22T09:27:08;26.00;75.20
52036;DHT22;38046;49.448;32.074;2023-06-22T09:29:34;25.90;75.50
52036;DHT22;38046;49.448;32.074;2023-06-22T09:32:00;25.90;75.90
52036;DHT22;38046;49.448;32.074;2023-06-22T09:34:26;25.80;75.80
52036;DHT22;38046;49.448;32.074;2023-06-22T09:36:51;25.80;75.90
52036;DHT22;38046;49.448;32.074;2023-06-22T09:39:18;25.80;75.70
52036;DHT22;38046;49.448;32.074;2023-06-22T09:41:44;25.80;75.70
52036;DHT22;38046;49.448;32.074;2023-06-22T09:44:10;25.80;75.20
52036;DHT22;38046;49.448;32.074;2023-06-22T09:46:35;25.80;74.80
52036;DHT22;38046;49.448;32.074;2023-06-22T09:49:01;25.70;75.80
52036;DHT22;38046;49.448;32.074;2023-06-22T09:51:27;25.70;75.80
52036;DHT22;38046;49.448;32.074;2023-06-22T09:53:52;25.70;75.50
52036;DHT22;38046;49.448;32.074;2023-06-22T09:56:21;25.70;75.50
52036;DHT22;38046;49.448;32.074;2023-06-22T09:58:47;25.60;75.40
52036;DHT22;38046;49.448;32.074;2023-06-22T10:01:15;25.60;76.30
52036;DHT22;38046;49.448;32.074;2023-06-22T10:03:41;25.60;75.80
52036;DHT22;38046;49.448;32.074;2023-06-22T10:06:07;25.60;75.00
52036;DHT22;38046;49.448;32.074;2023-06-22T10:08:33;25.60;75.70
52036;DHT22;38046;49.448;32.074;2023-06-22T10:10:58;25.60;76.50
52036;DHT22;38046;49.448;32.074;2023-06-22T10:13:24;25.60;76.30
52036;DHT22;38046;49.448;32.074;2023-06-22T10:15:50;25.60;75.40
52036;DHT22;38046;49.448;32.074;2023-06-22T10:18:17;25.70;73.80
52036;DHT22;38046;49.448;32.074;2023-06-22T10:20:44;25.70;72.90
52036;DHT22;38046;49.448;32.074;2023-06-22T10:23:10;25.70;71.70
52036;DHT22;38046;49.448;32.074;2023-06-22T10:25:36;25.80;71.00
52036;DHT22;38046;49.448;32.074;2023-06-22T10:28:02;25.80;70.00
52036;DHT22;38046;49.448;32.074;2023-06-22T10:30:27;25.80;68.60
52036;DHT22;38046;49.448;32.074;2023-06-22T10:32:54;25.80;68.20
52036;DHT22;38046;49.448;32.074;2023-06-22T10:35:20;25.90;68.70
52036;DHT22;38046;49.448;32.074;2023-06-22T10:37:46;25.90;69.00
52036;DHT22;38046;49.448;32.074;2023-06-22T10:40:13;25.90;68.40
52036;DHT22;38046;49.448;32.074;2023-06-22T10:42:40;26.00;69.10
52036;DHT22;38046;49.448;32.074;2023-06-22T10:45:06;26.00;68.80
52036;DHT22;38046;49.448;32.074;2023-06-22T10:47:32;26.10;68.70
52036;DHT22;38046;49.448;32.074;2023-06-22T10:49:58;26.00;68.40
52036;DHT22;38046;49.448;32.074;2023-06-22T10:52:23;26.10;67.60
52036;DHT22;38046;49.448;32.074;2023-06-22T10:54:49;26.10;66.40
52036;DHT22;38046;49.448;32.074;2023-06-22T10:57:15;26.10;65.90
52036;DHT22;38046;49.448;32.074;2023-06-22T10:59:40;26.10;65.50
52036;DHT22;38046;49.448;32.074;2023-06-22T11:02:06;26.10;65.20
52036;DHT22;38046;49.448;32.074;2023-06-22T11:04:32;26.10;64.90
52036;DHT22;38046;49.448;32.074;2023-06-22T11:06:57;26.10;64.90
52036;DHT22;38046;49.448;32.074;2023-06-22T11:09:23;26.10;65.00
52036;DHT22;38046;49.448;32.074;2023-06-22T11:11:51;26.10;65.10
52036;DHT22;38046;49.448;32.074;2023-06-22T11:14:18;26.10;65.10
52036;DHT22;38046;49.448;32.074;2023-06-22T11:16:44;26.10;65.50
52036;DHT22;38046;49.448;32.074;2023-06-22T11:19:11;26.10;65.10
52036;DHT22;38046;49.448;32.074;2023-06-22T11:21:37;26.10;64.60
52036;DHT22;38046;49.448;32.074;2023-06-22T11:24:03;26.10;63.90
52036;DHT22;38046;49.448;32.074;2023-06-22T11:26:29;26.10;63.70
52036;DHT22;38046;49.448;32.074;2023-06-22T11:28:55;26.10;63.20
52036;DHT22;38046;49.448;32.074;2023-06-22T11:31:21;26.10;62.60
52036;DHT22;38046;49.448;32.074;2023-06-22T11:33:46;26.10;62.50
52036;DHT22;38046;49.448;32.074;2023-06-22T11:36:14;26.10;62.40
52036;DHT22;38046;49.448;32.074;2023-06-22T11:38:39;26.10;62.10
52036;DHT22;38046;49.448;32.074;2023-06-22T11:41:06;26.20;61.90
52036;DHT22;38046;49.448;32.074;2023-06-22T11:43:33;26.20;61.60
52036;DHT22;38046;49.448;32.074;2023-06-22T11:45:59;26.20;60.90
52036;DHT22;38046;49.448;32.074;2023-06-22T11:48:25;26.20;60.40
52036;DHT22;38046;49.448;32.074;2023-06-22T11:50:51;26.20;60.40
52036;DHT22;38046;49.448;32.074;2023-06-22T11:53:16;26.20;60.10
52036;DHT22;38046;49.448;32.074;2023-06-22T11:55:46;26.20;59.70
52036;DHT22;38046;49.448;32.074;2023-06-22T11:58:12;26.20;60.00
52036;DHT22;38046;49.448;32.074;2023-06-22T12:00:37;26.10;59.80
52036;DHT22;38046;49.448;32.074;2023-06-22T12:03:03;26.10;58.90
52036;DHT22;38046;49.448;32.074;2023-06-22T12:05:29;26.10;58.50
52036;DHT22;38046;49.448;32.074;2023-06-22T12:07:55;26.10;58.40
52036;DHT22;38046;49.448;32.074;2023-06-22T12:10:25;26.10;58.20
52036;DHT22;38046;49.448;32.074;2023-06-22T12:12:51;26.10;58.10
52036;DHT22;38046;49.448;32.074;2023-06-22T12:15:17;26.10;57.80
52036;DHT22;38046;49.448;32.074;2023-06-22T12:17:42;26.10;57.70
52036;DHT22;38046;49.448;32.074;2023-06-22T12:20:09;26.10;57.40
52036;DHT22;38046;49.448;32.074;2023-06-22T12:22:35;26.10;56.90
52036;DHT22;38046;49.448;32.074;2023-06-22T12:25:03;26.10;56.70
52036;DHT22;38046;49.448;32.074;2023-06-22T12:27:29;26.10;56.40
52036;DHT22;38046;49.448;32.074;2023-06-22T12:29:56;26.10;56.20
52036;DHT22;38046;49.448;32.074;2023-06-22T12:32:21;26.20;56.00
52036;DHT22;38046;49.448;32.074;2023-06-22T12:34:47;26.20;56.10
52036;DHT22;38046;49.448;32.074;2023-06-22T12:37:13;26.20;56.50
52036;DHT22;38046;49.448;32.074;2023-06-22T12:39:40;26.20;56.70
52036;DHT22;38046;49.448;32.074;2023-06-22T12:42:06;26.20;56.50
52036;DHT22;38046;49.448;32.074;2023-06-22T12:44:37;26.20;56.40
52036;DHT22;38046;49.448;32.074;2023-06-22T12:47:03;26.20;56.00
52036;DHT22;38046;49.448;32.074;2023-06-22T12:49:29;26.20;55.70
52036;DHT22;38046;49.448;32.074;2023-06-22T12:51:54;26.30;55.30
52036;DHT22;38046;49.448;32.074;2023-06-22T12:54:20;26.40;55.20
52036;DHT22;38046;49.448;32.074;2023-06-22T12:56:46;26.40;55.20
52036;DHT22;38046;49.448;32.074;2023-06-22T12:59:12;26.40;55.20
52036;DHT22;38046;49.448;32.074;2023-06-22T13:01:38;26.40;55.20
52036;DHT22;38046;49.448;32.074;2023-06-22T13:04:03;26.40;55.00
52036;DHT22;38046;49.448;32.074;2023-06-22T13:06:29;26.40;54.80
52036;DHT22;38046;49.448;32.074;2023-06-22T13:08:55;26.40;54.60
52036;DHT22;38046;49.448;32.074;2023-06-22T13:11:21;26.40;54.50
52036;DHT22;38046;49.448;32.074;2023-06-22T13:13:46;26.40;55.00
52036;DHT22;38046;49.448;32.074;2023-06-22T13:16:12;26.40;56.50
52036;DHT22;38046;49.448;32.074;2023-06-22T13:18:38;26.40;57.50
52036;DHT22;38046;49.448;32.074;2023-06-22T13:21:04;26.40;58.10
52036;DHT22;38046;49.448;32.074;2023-06-22T13:23:31;26.30;58.10
52036;DHT22;38046;49.448;32.074;2023-06-22T13:25:57;26.30;58.50
52036;DHT22;38046;49.448;32.074;2023-06-22T13:28:23;26.30;58.80
52036;DHT22;38046;49.448;32.074;2023-06-22T13:30:49;26.30;59.20
52036;DHT22;38046;49.448;32.074;2023-06-22T13:33:15;26.30;59.20
52036;DHT22;38046;49.448;32.074;2023-06-22T13:35:40;26.20;59.40
52036;DHT22;38046;49.448;32.074;2023-06-22T13:38:09;26.20;59.40
52036;DHT22;38046;49.448;32.074;2023-06-22T13:40:36;26.20;59.20
52036;DHT22;38046;49.448;32.074;2023-06-22T13:43:04;26.20;59.40
52036;DHT22;38046;49.448;32.074;2023-06-22T13:45:30;26.20;59.60
52036;DHT22;38046;49.448;32.074;2023-06-22T13:47:55;26.20;59.60
52036;DHT22;38046;49.448;32.074;2023-06-22T13:50:21;26.20;59.50
52036;DHT22;38046;49.448;32.074;2023-06-22T13:52:47;26.20;59.30
52036;DHT22;38046;49.448;32.074;2023-06-22T13:55:12;26.20;59.00
52036;DHT22;38046;49.448;32.074;2023-06-22T13:57:40;26.20;58.80
52036;DHT22;38046;49.448;32.074;2023-06-22T14:00:06;26.20;59.00
52036;DHT22;38046;49.448;32.074;2023-06-22T14:02:32;26.20;58.80
52036;DHT22;38046;49.448;32.074;2023-06-22T14:04:58;26.20;58.60
52036;DHT22;38046;49.448;32.074;2023-06-22T14:07:24;26.20;58.50
52036;DHT22;38046;49.448;32.074;2023-06-22T14:09:50;26.20;58.40
52036;DHT22;38046;49.448;32.074;2023-06-22T14:12:16;26.20;58.20
52036;DHT22;38046;49.448;32.074;2023-06-22T14:14:43;26.30;57.70
52036;DHT22;38046;49.448;32.074;2023-06-22T14:17:09;26.30;57.30
52036;DHT22;38046;49.448;32.074;2023-06-22T14:19:35;26.30;57.00
52036;DHT22;38046;49.448;32.074;2023-06-22T14:22:02;26.30;57.30
52036;DHT22;38046;49.448;32.074;2023-06-22T14:24:27;26.30;57.50
52036;DHT22;38046;49.448;32.074;2023-06-22T14:26:54;26.30;57.70
52036;DHT22;38046;49.448;32.074;2023-06-22T14:29:21;26.30;57.60
52036;DHT22;38046;49.448;32.074;2023-06-22T14:31:47;26.30;57.30
52036;DHT22;38046;49.448;32.074;2023-06-22T14:34:13;26.30;57.50
52036;DHT22;38046;49.448;32.074;2023-06-22T14:36:39;26.30;57.40
52036;DHT22;38046;49.448;32.074;2023-06-22T14:39:05;26.30;57.50
52036;DHT22;38046;49.448;32.074;2023-06-22T14:41:30;26.30;57.40
52036;DHT22;38046;49.448;32.074;2023-06-22T14:43:56;26.30;57.30
52036;DHT22;38046;49.448;32.074;2023-06-22T14:46:22;26.30;58.00
52036;DHT22;38046;49.448;32.074;2023-06-22T14:48:48;26.30;58.20
52036;DHT22;38046;49.448;32.074;2023-06-22T14:51:14;26.30;58.00
52036;DHT22;38046;49.448;32.074;2023-06-22T14:53:41;26.40;57.80
52036;DHT22;38046;49.448;32.074;2023-06-22T14:56:07;26.40;58.30
52036;DHT22;38046;49.448;32.074;2023-06-22T14:58:33;26.40;58.00
52036;DHT22;38046;49.448;32.074;2023-06-22T15:01:00;26.40;57.90
52036;DHT22;38046;49.448;32.074;2023-06-22T15:03:25;26.40;57.60
52036;DHT22;38046;49.448;32.074;2023-06-22T15:05:54;26.50;57.10
52036;DHT22;38046;49.448;32.074;2023-06-22T15:08:20;26.50;56.80
52036;DHT22;38046;49.448;32.074;2023-06-22T15:10:47;26.50;56.80
52036;DHT22;38046;49.448;32.074;2023-06-22T15:13:14;26.60;56.80
52036;DHT22;38046;49.448;32.074;2023-06-22T15:15:40;26.60;56.50
52036;DHT22;38046;49.448;32.074;2023-06-22T15:18:06;26.60;56.40
52036;DHT22;38046;49.448;32.074;2023-06-22T15:20:31;26.60;56.70
52036;DHT22;38046;49.448;32.074;2023-06-22T15:22:57;26.60;56.70
52036;DHT22;38046;49.448;32.074;2023-06-22T15:25:23;26.70;56.70
52036;DHT22;38046;49.448;32.074;2023-06-22T15:27:49;26.70;56.70
52036;DHT22;38046;49.448;32.074;2023-06-22T15:30:15;26.60;56.60